createdAt,value
2018-06-18T00:01:08.516Z,63.54
2018-06-18T00:03:38.151Z,63.71
2018-06-18T00:06:07.768Z,64.23
2018-06-18T00:08:37.423Z,64.04
2018-06-18T00:11:07.063Z,64.22
2018-06-18T00:13:37.013Z,64.24
2018-06-18T00:16:07.107Z,63.71
2018-06-18T00:18:36.759Z,63.96
2018-06-18T00:21:06.468Z,64.57
2018-06-18T00:23:36.081Z,64.11
2018-06-18T00:26:05.983Z,64.80
2018-06-18T00:28:35.699Z,64.38
2018-06-18T00:31:05.307Z,64.89
2018-06-18T00:33:34.964Z,64.48
2018-06-18T00:36:04.624Z,64.93
2018-06-18T00:38:34.236Z,65.49
2018-06-18T00:41:03.847Z,66.46
2018-06-18T00:43:33.512Z,66.39
2018-06-18T00:46:03.147Z,66.60
2018-06-18T00:48:32.786Z,67.21
2018-06-18T00:51:02.473Z,68.07
2018-06-18T00:53:32.080Z,68.01
2018-06-18T00:56:11.052Z,67.28
2018-06-18T00:58:41.016Z,68.35
2018-06-18T01:01:11.299Z,67.28
2018-06-18T01:03:40.917Z,68.04
2018-06-18T01:06:10.552Z,67.64
2018-06-18T01:08:40.205Z,67.44
2018-06-18T01:11:09.911Z,67.29
2018-06-18T01:13:39.587Z,68.58
2018-06-18T01:16:09.260Z,68.85
2018-06-18T01:18:38.883Z,68.24
2018-06-18T01:21:08.503Z,67.69
2018-06-18T01:25:51.627Z,68.45
2018-06-18T01:28:21.252Z,68.76
2018-06-18T01:30:50.888Z,68.59
2018-06-18T01:33:20.552Z,68.21
2018-06-18T01:35:50.171Z,68.85
2018-06-18T01:38:19.783Z,67.87
2018-06-18T01:40:49.428Z,68.61
2018-06-18T01:43:19.048Z,68.72
2018-06-18T01:45:48.673Z,69.73
2018-06-18T01:48:18.335Z,69.65
2018-06-18T01:50:54.656Z,69.44
2018-06-18T01:53:24.339Z,69.77
2018-06-18T01:55:53.959Z,69.96
2018-06-18T01:58:23.591Z,68.90
2018-06-18T02:00:53.252Z,70.02
2018-06-18T02:03:22.925Z,69.75
2018-06-18T02:05:52.527Z,69.35
2018-06-18T02:08:22.188Z,68.60
2018-06-18T02:10:51.804Z,69.66
2018-06-18T02:13:21.472Z,70.22
2018-06-18T02:15:51.137Z,69.48
2018-06-18T02:18:20.760Z,68.70
2018-06-18T02:20:56.695Z,68.26
2018-06-18T02:23:26.335Z,69.48
2018-06-18T02:25:56.000Z,68.90
2018-06-18T02:28:30.928Z,68.71
2018-06-18T02:31:05.950Z,68.58
2018-06-18T02:33:40.811Z,68.81
2018-06-18T02:36:15.686Z,68.84
2018-06-18T02:38:50.413Z,68.54
2018-06-18T02:41:20.376Z,68.52
2018-06-18T02:43:50.018Z,67.98
2018-06-18T02:46:19.635Z,68.15
2018-06-18T02:48:49.320Z,68.19
2018-06-18T02:51:18.972Z,69.11
2018-06-18T02:53:48.596Z,68.73
2018-06-18T02:56:20.264Z,69.03
2018-06-18T02:58:49.930Z,69.87
2018-06-18T03:01:19.628Z,69.30
2018-06-18T03:03:49.291Z,69.46
2018-06-18T03:06:18.904Z,69.05
2018-06-18T03:08:48.531Z,69.18
2018-06-18T03:11:18.188Z,69.78
2018-06-18T03:13:47.906Z,69.78
2018-06-18T03:16:17.540Z,68.88
2018-06-18T03:18:52.328Z,68.84
2018-06-18T03:21:26.978Z,68.37
2018-06-18T03:24:01.821Z,68.43
2018-06-18T03:26:36.563Z,68.74
2018-06-18T03:29:13.317Z,68.68
2018-06-18T03:31:44.600Z,68.30
2018-06-18T03:34:14.300Z,68.51
2018-06-18T03:36:44.824Z,69.30
2018-06-18T03:39:15.024Z,68.94
2018-06-18T03:41:47.755Z,69.04
2018-06-18T03:44:26.488Z,69.28
2018-06-18T03:46:57.091Z,68.93
2018-06-18T03:49:26.765Z,69.68
2018-06-18T03:51:56.428Z,69.16
2018-06-18T03:54:26.111Z,69.95
2018-06-18T03:56:55.738Z,68.99
2018-06-18T03:59:25.430Z,69.55
2018-06-18T04:02:20.864Z,68.62
2018-06-18T04:04:58.648Z,68.94
2018-06-18T04:08:01.145Z,68.16
2018-06-18T04:10:37.593Z,68.40
2018-06-18T04:13:07.583Z,68.07
2018-06-18T04:15:37.211Z,68.66
2018-06-18T04:18:06.848Z,68.16
2018-06-18T04:20:42.088Z,68.12
2018-06-18T04:23:11.737Z,69.28
2018-06-18T04:25:41.391Z,68.10
2018-06-18T04:28:11.342Z,68.33
2018-06-18T04:30:41.307Z,68.17
2018-06-18T04:33:11.499Z,68.22
2018-06-18T04:35:41.128Z,68.08
2018-06-18T04:38:10.793Z,67.55
2018-06-18T04:40:40.499Z,68.89
2018-06-18T04:43:15.411Z,69.35
2018-06-18T04:45:50.204Z,68.54
2018-06-18T04:48:25.041Z,69.46
2018-06-18T04:50:59.547Z,69.14
2018-06-18T04:53:29.260Z,68.65
2018-06-18T04:55:58.959Z,69.34
2018-06-18T04:58:29.115Z,68.62
2018-06-18T05:01:06.094Z,68.25
2018-06-18T05:03:35.795Z,68.76
2018-06-18T05:06:05.427Z,68.11
2018-06-18T05:08:56.868Z,68.34
2018-06-18T05:11:26.499Z,68.59
2018-06-18T05:13:56.168Z,68.33
2018-06-18T05:16:25.780Z,68.09
2018-06-18T05:18:55.403Z,68.92
2018-06-18T05:21:25.048Z,67.95
2018-06-18T05:23:54.687Z,68.87
2018-06-18T05:26:24.642Z,69.39
2018-06-18T05:28:54.328Z,67.86
2018-06-18T05:31:23.952Z,69.36
2018-06-18T05:33:53.715Z,67.50
2018-06-18T05:36:23.395Z,68.08
2018-06-18T05:38:52.996Z,67.46
2018-06-18T05:41:22.655Z,67.41
2018-06-18T05:43:52.328Z,67.37
2018-06-18T05:46:21.960Z,67.08
2018-06-18T05:48:51.599Z,66.36
2018-06-18T05:51:21.295Z,67.44
2018-06-18T05:53:50.909Z,67.03
2018-06-18T05:56:20.529Z,67.70
2018-06-18T05:58:50.188Z,67.34
2018-06-18T06:01:19.808Z,67.27
2018-06-18T06:03:49.451Z,66.66
2018-06-18T06:06:19.153Z,66.45
2018-06-18T06:08:48.768Z,65.93
2018-06-18T06:11:18.421Z,65.88
2018-06-18T06:13:48.091Z,66.17
2018-06-18T06:16:17.716Z,65.58
2018-06-18T06:18:47.311Z,64.64
2018-06-18T06:21:17.095Z,64.28
2018-06-18T06:23:46.772Z,64.97
2018-06-18T06:26:16.398Z,64.30
2018-06-18T06:28:46.051Z,65.15
2018-06-18T06:31:15.668Z,65.20
2018-06-18T06:33:45.320Z,65.15
2018-06-18T06:36:15.545Z,64.87
2018-06-18T06:38:45.171Z,64.86
2018-06-18T06:41:14.815Z,65.11
2018-06-18T06:43:44.490Z,64.76
2018-06-18T06:46:14.114Z,63.44
2018-06-18T06:48:43.746Z,64.33
2018-06-18T06:51:13.425Z,64.24
2018-06-18T06:53:43.149Z,63.91
2018-06-18T06:56:12.773Z,63.22
2018-06-18T06:58:42.465Z,63.32
2018-06-18T07:01:12.108Z,64.05
2018-06-18T07:03:41.704Z,64.15
2018-06-18T07:06:11.404Z,63.48
2018-06-18T07:08:41.034Z,62.93
2018-06-18T07:11:10.747Z,61.99
2018-06-18T07:13:40.499Z,61.82
2018-06-18T07:16:10.125Z,62.73
2018-06-18T07:18:39.800Z,63.91
2018-06-18T07:21:09.424Z,62.97
2018-06-18T07:23:39.196Z,60.58
2018-06-18T07:26:08.856Z,62.03
2018-06-18T07:28:38.507Z,62.42
2018-06-18T07:31:08.192Z,60.42
2018-06-18T07:33:37.819Z,60.38
2018-06-18T07:36:07.455Z,60.09
2018-06-18T07:38:37.166Z,60.22
2018-06-18T07:41:06.888Z,60.71
2018-06-18T07:43:36.724Z,58.34
2018-06-18T07:46:06.636Z,59.99
2018-06-18T07:48:36.256Z,58.04
2018-06-18T07:51:05.904Z,59.21
2018-06-18T07:53:35.601Z,59.35
2018-06-18T07:56:05.328Z,59.95
2018-06-18T07:58:34.952Z,59.72
2018-06-18T08:01:04.627Z,58.55
2018-06-18T08:03:34.663Z,58.26
2018-06-18T08:06:04.384Z,58.75
2018-06-18T08:08:34.001Z,58.42
2018-06-18T08:11:03.638Z,58.45
2018-06-18T08:13:33.557Z,57.82
2018-06-18T08:16:03.188Z,57.67
2018-06-18T08:18:32.860Z,57.77
2018-06-18T08:21:03.441Z,58.98
2018-06-18T08:23:33.059Z,58.07
2018-06-18T08:26:02.697Z,59.41
2018-06-18T08:28:32.369Z,58.85
2018-06-18T08:31:02.012Z,58.84
2018-06-18T08:33:31.635Z,58.72
2018-06-18T08:36:01.346Z,59.06
2018-06-18T08:38:30.972Z,59.57
2018-06-18T08:41:00.631Z,59.52
2018-06-18T08:43:30.507Z,59.36
2018-06-18T08:46:00.137Z,60.24
2018-06-18T08:48:34.860Z,59.85
2018-06-18T08:51:09.612Z,59.86
2018-06-18T08:53:44.392Z,60.34
2018-06-18T08:56:19.193Z,61.16
2018-06-18T08:58:53.972Z,61.22
2018-06-18T09:01:27.515Z,62.11
2018-06-18T09:04:02.316Z,61.97
2018-06-18T09:06:31.962Z,61.69
2018-06-18T09:09:01.604Z,61.68
2018-06-18T09:11:31.468Z,61.36
2018-06-18T09:14:01.113Z,62.29
2018-06-18T09:16:30.829Z,61.42
2018-06-18T09:19:00.467Z,61.58
2018-06-18T09:21:30.156Z,62.68
2018-06-18T09:23:59.856Z,63.85
2018-06-18T09:26:29.524Z,64.18
2018-06-18T09:28:59.204Z,63.91
2018-06-18T09:31:28.837Z,64.37
2018-06-18T09:33:58.460Z,63.94
2018-06-18T09:36:28.123Z,64.16
2018-06-18T09:38:57.739Z,64.45
2018-06-18T09:41:27.363Z,63.82
2018-06-18T09:43:57.023Z,65.01
2018-06-18T09:46:26.663Z,64.72
2018-06-18T09:49:01.416Z,64.10
2018-06-18T09:51:36.351Z,64.35
2018-06-18T09:54:11.163Z,64.61
2018-06-18T09:56:45.784Z,64.26
2018-06-18T09:59:20.633Z,63.06
2018-06-18T10:01:50.246Z,63.32
2018-06-18T10:04:19.876Z,63.07
2018-06-18T10:06:49.548Z,62.49
2018-06-18T10:09:19.179Z,63.13
2018-06-18T10:11:48.789Z,63.21
2018-06-18T10:14:18.456Z,61.93
2018-06-18T10:16:48.100Z,63.21
2018-06-18T10:19:17.728Z,63.00
2018-06-18T10:21:47.376Z,62.71
2018-06-18T10:24:17.119Z,63.85
2018-06-18T10:26:46.839Z,63.92
2018-06-18T10:29:16.508Z,63.42
2018-06-18T10:31:46.136Z,63.00
2018-06-18T10:34:20.972Z,65.07
2018-06-18T10:36:55.880Z,63.66
2018-06-18T10:39:30.627Z,63.53
2018-06-18T10:42:05.239Z,64.26
2018-06-18T10:44:34.928Z,64.54
2018-06-18T10:47:04.565Z,64.04
2018-06-18T10:49:34.250Z,64.01
2018-06-18T10:52:03.903Z,64.66
2018-06-18T10:54:33.528Z,62.62
2018-06-18T10:57:03.254Z,62.90
2018-06-18T10:59:32.864Z,63.48
2018-06-18T11:02:02.560Z,61.41
2018-06-18T11:04:32.276Z,62.37
2018-06-18T11:07:01.912Z,61.47
2018-06-18T11:09:31.512Z,61.12
2018-06-18T11:12:01.207Z,60.33
2018-06-18T11:14:30.838Z,60.92
2018-06-18T11:17:05.835Z,59.77
2018-06-18T11:19:40.419Z,60.99
2018-06-18T11:22:10.165Z,60.00
2018-06-18T11:24:44.823Z,60.34
2018-06-18T11:27:14.932Z,60.06
2018-06-18T11:29:44.580Z,59.06
2018-06-18T11:32:14.266Z,60.36
2018-06-18T11:34:43.904Z,59.91
2018-06-18T11:37:13.540Z,59.91
2018-06-18T11:39:43.221Z,60.64
2018-06-18T11:42:12.933Z,59.81
2018-06-18T11:44:42.588Z,60.16
2018-06-18T11:47:12.361Z,59.71
2018-06-18T11:49:41.975Z,59.76
2018-06-18T11:52:11.657Z,59.41
2018-06-18T11:54:41.348Z,59.51
2018-06-18T11:57:10.956Z,58.57
2018-06-18T11:59:45.804Z,59.50
2018-06-18T12:02:20.624Z,58.06
2018-06-18T12:04:55.461Z,58.36
2018-06-18T12:07:30.212Z,58.64
2018-06-18T12:09:59.949Z,58.16
2018-06-18T12:12:29.600Z,58.57
2018-06-18T12:14:59.269Z,57.75
2018-06-18T12:17:28.899Z,57.79
2018-06-18T12:19:58.511Z,59.07
2018-06-18T12:22:28.167Z,59.39
2018-06-18T12:24:57.918Z,59.08
2018-06-18T12:27:30.148Z,59.11
2018-06-18T12:29:59.856Z,59.85
2018-06-18T12:32:29.473Z,59.31
2018-06-18T12:34:59.216Z,57.96
2018-06-18T12:37:28.824Z,57.06
2018-06-18T12:39:58.432Z,58.27
2018-06-18T12:42:28.092Z,57.62
2018-06-18T12:46:03.711Z,55.36
2018-06-18T12:48:38.448Z,55.03
2018-06-18T12:51:13.220Z,55.97
2018-06-18T12:53:47.964Z,55.48
2018-06-18T12:56:22.763Z,57.50
2018-06-18T12:58:52.419Z,57.65
2018-06-18T13:01:23.664Z,55.25
2018-06-18T13:03:53.355Z,56.46
2018-06-18T13:06:22.975Z,54.86
2018-06-18T13:08:52.588Z,56.08
2018-06-18T13:11:22.229Z,54.94
2018-06-18T13:13:51.828Z,55.95
2018-06-18T13:16:21.443Z,55.82
2018-06-18T13:18:51.111Z,55.69
2018-06-18T13:21:20.748Z,56.37
2018-06-18T13:23:50.355Z,54.31
2018-06-18T13:26:20.268Z,55.35
2018-06-18T13:28:49.892Z,54.06
2018-06-18T13:31:19.511Z,55.94
2018-06-18T13:33:49.212Z,54.41
2018-06-18T13:36:18.836Z,53.36
2018-06-18T13:38:53.748Z,52.62
2018-06-18T13:41:28.599Z,53.34
2018-06-18T13:44:03.416Z,53.05
2018-06-18T13:46:38.252Z,51.92
2018-06-18T13:49:07.915Z,53.93
2018-06-18T13:51:37.531Z,53.44
2018-06-18T13:54:07.180Z,53.01
2018-06-18T13:56:36.845Z,53.20
2018-06-18T13:59:06.480Z,54.12
2018-06-18T14:01:36.144Z,55.32
2018-06-18T14:04:06.006Z,54.75
2018-06-18T14:06:35.620Z,54.57
2018-06-18T14:09:06.891Z,53.73
2018-06-18T14:11:36.556Z,53.74
2018-06-18T14:14:06.273Z,54.24
2018-06-18T14:16:36.230Z,53.26
2018-06-18T14:19:11.356Z,52.95
2018-06-18T14:21:40.979Z,54.61
2018-06-18T14:24:10.596Z,55.35
2018-06-18T14:26:40.456Z,55.83
2018-06-18T14:29:14.170Z,53.42
2018-06-18T14:31:49.000Z,52.90
2018-06-18T14:34:23.783Z,53.37
2018-06-18T14:36:58.662Z,53.04
2018-06-18T14:39:33.312Z,53.35
2018-06-18T14:42:03.049Z,53.32
2018-06-18T14:44:32.648Z,53.20
2018-06-18T14:47:02.318Z,53.63
2018-06-18T14:49:31.942Z,52.79
2018-06-18T14:52:01.563Z,53.41
2018-06-18T14:54:31.220Z,53.37
2018-06-18T14:57:02.648Z,53.00
2018-06-18T14:59:35.415Z,52.29
2018-06-18T15:02:05.042Z,51.63
2018-06-18T15:04:34.660Z,52.45
2018-06-18T15:07:04.316Z,53.98
2018-06-18T15:09:33.967Z,53.37
2018-06-18T15:12:03.625Z,53.39
2018-06-18T15:14:33.294Z,51.65
2018-06-18T15:17:02.931Z,52.80
2018-06-18T15:19:32.549Z,53.13
2018-06-18T15:22:02.231Z,52.95
2018-06-18T15:24:40.108Z,53.77
2018-06-18T15:27:09.855Z,54.03
2018-06-18T15:29:39.446Z,53.34
2018-06-18T15:32:09.166Z,53.19
2018-06-18T15:34:38.744Z,53.67
2018-06-18T15:37:08.424Z,53.06
2018-06-18T15:39:38.043Z,53.19
2018-06-18T15:42:07.656Z,54.00
2018-06-18T15:44:37.313Z,54.11
2018-06-18T15:47:07.178Z,55.07
2018-06-18T15:49:36.832Z,55.09
2018-06-18T15:52:06.491Z,54.71
2018-06-18T15:54:36.403Z,54.89
2018-06-18T15:57:06.120Z,54.92
2018-06-18T15:59:35.770Z,54.58
2018-06-18T16:02:05.381Z,54.47
2018-06-18T16:04:35.128Z,54.98
2018-06-18T16:07:04.866Z,54.05
2018-06-18T16:09:34.484Z,55.66
2018-06-18T16:12:04.244Z,55.71
2018-06-18T16:14:33.877Z,55.93
2018-06-18T16:17:03.528Z,53.72
2018-06-18T16:19:33.183Z,54.69
2018-06-18T16:22:02.881Z,54.13
2018-06-18T16:24:32.492Z,55.07
2018-06-18T16:27:02.311Z,55.58
2018-06-18T16:29:31.975Z,54.71
2018-06-18T16:32:01.589Z,56.56
2018-06-18T16:34:31.280Z,56.58
2018-06-18T16:37:01.177Z,56.66
2018-06-18T16:39:30.784Z,56.07
2018-06-18T16:42:00.520Z,57.16
2018-06-18T16:44:30.164Z,56.47
2018-06-18T16:46:59.824Z,55.38
2018-06-18T16:49:29.469Z,56.09
2018-06-18T16:51:59.119Z,56.72
2018-06-18T16:54:28.724Z,57.12
2018-06-18T16:56:58.461Z,56.19
2018-06-18T16:59:28.136Z,57.21
2018-06-18T17:01:57.740Z,56.18
2018-06-18T17:04:27.373Z,56.67
2018-06-18T17:06:57.045Z,57.37
2018-06-18T17:09:26.683Z,57.72
2018-06-18T17:11:56.334Z,57.17
2018-06-18T17:14:26.021Z,57.76
2018-06-18T17:16:55.683Z,57.92
2018-06-18T17:19:25.345Z,58.16
2018-06-18T17:21:55.000Z,57.73
2018-06-18T17:24:24.636Z,58.74
2018-06-18T17:26:54.309Z,57.71
2018-06-18T17:29:23.969Z,57.61
2018-06-18T17:31:53.581Z,58.01
2018-06-18T17:34:23.291Z,57.84
2018-06-18T17:36:53.625Z,57.86
2018-06-18T17:39:23.313Z,57.90
2018-06-18T17:41:52.957Z,59.02
2018-06-18T17:44:22.596Z,59.81
2018-06-18T17:46:52.296Z,60.75
2018-06-18T17:49:21.940Z,61.29
2018-06-18T17:51:51.585Z,60.81
2018-06-18T17:54:21.283Z,60.54
2018-06-18T17:56:50.965Z,61.03
2018-06-18T17:59:20.647Z,61.72
2018-06-18T18:01:50.355Z,60.88
2018-06-18T18:04:19.967Z,61.34
2018-06-18T18:06:49.603Z,62.71
2018-06-18T18:09:19.308Z,61.50
2018-06-18T18:11:48.960Z,63.30
2018-06-18T18:14:18.596Z,63.85
2018-06-18T18:16:48.288Z,64.49
2018-06-18T18:19:17.913Z,64.53
2018-06-18T18:21:47.584Z,64.14
2018-06-18T18:24:17.259Z,64.95
2018-06-18T18:26:46.904Z,64.60
2018-06-18T18:29:16.549Z,64.92
2018-06-18T18:31:46.240Z,64.95
2018-06-18T18:34:15.901Z,64.87
2018-06-18T18:36:45.553Z,64.30
2018-06-18T18:39:15.318Z,63.88
2018-06-18T18:41:44.948Z,64.80
2018-06-18T18:44:14.604Z,64.92
2018-06-18T18:46:44.280Z,64.21
2018-06-18T18:49:14.026Z,64.44
2018-06-18T18:51:43.668Z,65.37
2018-06-18T18:55:23.432Z,64.99
2018-06-18T18:58:04.309Z,64.76
2018-06-18T19:00:34.029Z,64.42
2018-06-18T19:03:03.715Z,64.23
2018-06-18T19:05:33.391Z,64.35
2018-06-18T19:08:03.014Z,64.28
2018-06-18T19:10:34.676Z,64.01
2018-06-18T19:13:09.208Z,64.71
2018-06-18T19:15:39.243Z,65.05
2018-06-18T19:18:09.432Z,64.51
2018-06-18T19:20:45.441Z,65.01
2018-06-18T19:23:15.105Z,65.01
2018-06-18T19:25:44.737Z,65.06
2018-06-18T19:28:14.433Z,65.57
2018-06-18T19:30:47.184Z,65.79
2018-06-18T19:33:43.851Z,65.37
2018-06-18T19:36:13.484Z,65.53
2018-06-18T19:38:43.162Z,66.27
2018-06-18T19:41:12.807Z,66.39
2018-06-18T19:43:42.432Z,66.14
2018-06-18T19:46:12.196Z,66.11
2018-06-18T19:48:47.106Z,66.24
2018-06-18T19:51:16.783Z,66.31
2018-06-18T19:53:46.388Z,66.15
2018-06-18T19:56:16.360Z,66.47
2018-06-18T19:58:45.995Z,66.61
2018-06-18T20:01:15.635Z,66.89
2018-06-18T20:03:45.301Z,67.15
2018-06-18T20:06:14.925Z,67.51
2018-06-18T20:08:44.556Z,67.94
2018-06-18T20:11:14.236Z,67.74
2018-06-18T20:13:43.857Z,67.87
2018-06-18T20:16:13.484Z,67.51
2018-06-18T20:18:43.151Z,67.87
2018-06-18T20:21:12.766Z,68.58
2018-06-18T20:23:42.421Z,68.22
2018-06-18T20:26:15.049Z,68.45
2018-06-18T20:28:44.696Z,68.40
2018-06-18T20:31:14.347Z,68.67
2018-06-18T20:33:47.632Z,68.68
2018-06-18T20:36:18.528Z,69.08
2018-06-18T20:38:48.219Z,69.20
2018-06-18T20:41:17.847Z,69.17
2018-06-18T20:44:20.040Z,69.22
2018-06-18T20:46:49.685Z,69.30
2018-06-18T20:49:19.400Z,69.21
2018-06-18T20:51:49.099Z,69.72
2018-06-18T20:54:18.736Z,69.40
2018-06-18T20:56:48.352Z,69.41
2018-06-18T20:59:18.032Z,69.08
2018-06-18T21:01:47.679Z,68.90
2018-06-18T21:04:17.333Z,68.92
2018-06-18T21:06:47.000Z,69.22
2018-06-18T21:09:16.640Z,68.67
2018-06-18T21:11:46.358Z,68.65
2018-06-18T21:14:15.990Z,68.50
2018-06-18T21:16:47.471Z,68.76
2018-06-18T21:19:17.120Z,68.83
2018-06-18T21:21:46.782Z,69.81
2018-06-18T21:24:16.557Z,70.31
2018-06-18T21:26:46.236Z,70.08
2018-06-18T21:29:15.915Z,69.97
2018-06-18T21:31:45.555Z,70.23
2018-06-18T21:34:15.228Z,70.43
2018-06-18T21:36:44.851Z,70.33
2018-06-18T21:39:14.528Z,70.78
2018-06-18T21:41:44.168Z,70.70
2018-06-18T21:44:19.611Z,70.53
2018-06-18T21:46:49.219Z,70.63
2018-06-18T21:49:18.831Z,71.35
2018-06-18T21:51:48.493Z,71.32
2018-06-18T21:54:18.128Z,72.07
2018-06-18T21:56:47.794Z,72.44
2018-06-18T21:59:17.465Z,72.19
2018-06-18T22:01:47.330Z,72.17
2018-06-18T22:04:17.232Z,72.20
2018-06-18T22:06:46.880Z,72.12
2018-06-18T22:09:18.688Z,71.33
2018-06-18T22:11:53.604Z,70.97
2018-06-18T22:14:24.164Z,71.88
2018-06-18T22:16:53.916Z,71.20
2018-06-18T22:19:23.583Z,71.99
2018-06-18T22:21:53.291Z,71.16
2018-06-18T22:24:22.947Z,71.02
2018-06-18T22:26:52.699Z,71.56
2018-06-18T22:29:22.739Z,71.42
2018-06-18T22:31:52.396Z,70.80
2018-06-18T22:34:22.162Z,71.00
2018-06-18T22:36:51.740Z,70.60
2018-06-18T22:39:21.377Z,70.80
2018-06-18T22:41:51.060Z,70.49
2018-06-18T22:44:20.703Z,71.12
2018-06-18T22:46:50.344Z,71.14
2018-06-18T22:49:20.036Z,71.58
2018-06-18T22:51:49.681Z,71.70
2018-06-18T22:54:19.349Z,71.29
2018-06-18T22:56:49.100Z,72.24
2018-06-18T22:59:18.759Z,70.82
2018-06-18T23:01:48.460Z,71.36
2018-06-18T23:04:18.164Z,70.19
2018-06-18T23:06:47.833Z,71.93
2018-06-18T23:09:17.504Z,71.62
2018-06-18T23:11:47.159Z,71.27
2018-06-18T23:14:21.108Z,71.26
2018-06-18T23:16:50.797Z,71.58
2018-06-18T23:19:20.480Z,71.76
2018-06-18T23:21:50.164Z,71.99
2018-06-18T23:24:19.811Z,71.76
2018-06-18T23:26:50.009Z,71.21
2018-06-18T23:29:20.592Z,71.80
2018-06-18T23:31:50.237Z,71.57
2018-06-18T23:34:19.916Z,72.11
2018-06-18T23:36:49.641Z,72.27
2018-06-18T23:39:19.340Z,72.68
2018-06-18T23:41:52.391Z,73.49
2018-06-18T23:44:22.096Z,72.74
2018-06-18T23:46:51.751Z,73.07
2018-06-18T23:49:21.514Z,73.11
2018-06-18T23:51:51.176Z,72.77
2018-06-18T23:54:20.823Z,72.56
2018-06-18T23:56:50.595Z,72.45
2018-06-18T23:59:20.291Z,73.30
